KCDH/CDH METAR and TAF weather

Enter ICAO airport designator
Station Type Date Time Source
KCDH METAR 2019/04/18 20:35 UTC NOAA

KCDH 182035Z AUTO 15004KT 10SM SCT009 OVC014 17/15 A2963 RMK AO2


Station Type Date Time Source
KCDH Decoded METAR 2019/04/18 20:35 UTC NOAA

Camden / Harrell Field, AR, United States (KCDH) 33-37N 092-46W
Apr 18, 2019 - 04:35 PM EDT / 2019.04.18 2035 UTC
Wind: from the SSE (150 degrees) at 5 MPH (4 KT):0
Visibility: 10 mile(s):0
Sky conditions: overcast
Temperature: 62 F (17 C)
Dew Point: 59 F (15 C)
Relative Humidity: 88%
Pressure (altimeter): 29.63 in. Hg (1003 hPa)
ob: KCDH 182035Z AUTO 15004KT 10SM SCT009 OVC014 17/15 A2963 RMK AO2
cycle: 20

Station Type Date Time Source
KCDH TAF UTC NOAA

Error!

Example: see airport list